Onaway, Michigan
Current Conditions -  °F | °C
As of 10:54 AM on Friday 28 Nov 2014 (Local Time) from KPZQ Reporting Station
Light Snow Light Snow  
Wind Chill: 11°   Ceiling: 11000
Heat Index: 19°   Visibility: 10mi
Dew Point: 16°   Wind: 6mph
Humidity: 87%   Direction: 190°S
Pressure: 30.23"   Gusts: NA
Location:  45.36°N, 84.22°W
Report Text: KPZQ 281554Z AUTO 19005KT 10SM -SN BKN110 M07/M09 A3023 RMK AO2 T10711090
Loading
Personal Weather Stations






























Interactive Weather Map New forecast layout! Learn more

10-Day Weather Forecast

Advertisements
Track Severe Weather on mobile